createdAt,value
2023-01-09T00:00:31.480Z,96703.00
2023-01-09T00:02:58.304Z,96701.41
2023-01-09T00:05:24.981Z,96690.88
2023-01-09T00:07:51.496Z,96699.81
2023-01-09T00:10:17.974Z,96688.69
2023-01-09T00:12:50.604Z,96682.69
2023-01-09T00:15:17.401Z,96679.03
2023-01-09T00:17:45.037Z,96664.22
2023-01-09T00:20:11.903Z,96659.78
2023-01-09T00:22:38.394Z,96652.94
2023-01-09T00:25:05.962Z,96644.34
2023-01-09T00:27:34.076Z,96649.63
2023-01-09T00:30:00.851Z,96641.66
2023-01-09T00:32:28.554Z,96634.25
2023-01-09T00:34:55.419Z,96632.84
2023-01-09T00:37:22.300Z,96631.94
2023-01-09T00:39:48.770Z,96639.84
2023-01-09T00:42:20.783Z,96640.94
2023-01-09T00:44:52.454Z,96634.88
2023-01-09T00:47:24.839Z,96637.28
2023-01-09T00:49:53.407Z,96633.47
2023-01-09T00:52:22.226Z,96636.22
2023-01-09T00:54:49.263Z,96631.72
2023-01-09T00:57:16.007Z,96638.63
2023-01-09T00:59:43.026Z,96630.03
2023-01-09T01:02:10.420Z,96636.66
2023-01-09T01:04:57.911Z,96627.91
2023-01-09T01:07:39.192Z,96622.78
2023-01-09T01:10:08.025Z,96629.53
2023-01-09T01:12:34.464Z,96621.63
2023-01-09T01:15:01.303Z,96625.84
2023-01-09T01:17:27.915Z,96632.78
2023-01-09T01:19:57.025Z,96631.28
2023-01-09T01:22:23.466Z,96629.59
2023-01-09T01:24:50.002Z,96630.31
2023-01-09T01:27:16.466Z,96622.94
2023-01-09T01:29:42.927Z,96614.31
2023-01-09T01:32:09.523Z,96619.91
2023-01-09T01:34:35.977Z,96620.06
2023-01-09T01:37:02.474Z,96620.94
2023-01-09T01:39:28.977Z,96608.84
2023-01-09T01:41:57.507Z,96608.00
2023-01-09T01:44:58.332Z,96608.72
2023-01-09T01:47:40.628Z,96603.50
2023-01-09T01:50:15.522Z,96606.19
2023-01-09T01:52:44.881Z,96592.97
2023-01-09T01:55:11.851Z,96603.41
2023-01-09T01:57:46.151Z,96595.44
2023-01-09T02:00:16.795Z,96597.22
2023-01-09T02:02:45.923Z,96591.38
2023-01-09T02:05:12.781Z,96581.91
2023-01-09T02:07:39.255Z,96581.19
2023-01-09T02:10:06.104Z,96578.38
2023-01-09T02:12:32.534Z,96581.28
2023-01-09T02:15:06.998Z,96580.56
2023-01-09T02:18:00.780Z,96573.47
2023-01-09T02:20:41.212Z,96564.13
2023-01-09T02:23:44.692Z,96560.53
2023-01-09T02:26:23.486Z,96554.41
2023-01-09T02:29:27.484Z,96550.81
2023-01-09T02:32:04.969Z,96547.28
2023-01-09T02:34:34.223Z,96546.97
2023-01-09T02:37:12.691Z,96542.44
2023-01-09T02:40:07.163Z,96538.63
2023-01-09T02:42:36.311Z,96526.09
2023-01-09T02:45:02.850Z,96523.34
2023-01-09T02:47:32.317Z,96521.56
2023-01-09T02:50:06.235Z,96525.94
2023-01-09T02:52:57.561Z,96519.78
2023-01-09T02:55:45.485Z,96526.63
2023-01-09T02:58:20.824Z,96522.25
2023-01-09T03:01:14.915Z,96521.88
2023-01-09T03:04:16.187Z,96512.56
2023-01-09T03:06:51.860Z,96507.34
2023-01-09T03:09:23.068Z,96507.34
2023-01-09T03:12:02.674Z,96501.81
2023-01-09T03:14:31.371Z,96495.81
2023-01-09T03:17:02.582Z,96491.28
2023-01-09T03:19:32.341Z,96487.75
2023-01-09T03:22:01.483Z,96489.63
2023-01-09T03:24:30.290Z,96488.91
2023-01-09T03:26:56.817Z,96490.66
2023-01-09T03:29:23.291Z,96488.84
2023-01-09T03:31:49.863Z,96476.69
2023-01-09T03:34:16.377Z,96484.47
2023-01-09T03:36:51.533Z,96489.69
2023-01-09T03:39:18.079Z,96482.91
2023-01-09T03:41:44.544Z,96474.53
2023-01-09T03:44:11.025Z,96472.72
2023-01-09T03:46:37.548Z,96463.25
2023-01-09T03:49:04.058Z,96462.41
2023-01-09T03:51:30.586Z,96462.00
2023-01-09T03:53:57.191Z,96458.72
2023-01-09T03:56:23.648Z,96464.81
2023-01-09T03:58:50.272Z,96469.19
2023-01-09T04:01:16.789Z,96461.19
2023-01-09T04:03:43.371Z,96461.16
2023-01-09T04:06:09.878Z,96453.50
2023-01-09T04:08:36.498Z,96449.47
2023-01-09T04:11:05.292Z,96448.81
2023-01-09T04:13:34.152Z,96433.00
2023-01-09T04:16:02.923Z,96433.94
2023-01-09T04:18:29.393Z,96430.41
2023-01-09T04:20:56.188Z,96431.25
2023-01-09T04:23:22.771Z,96422.31
2023-01-09T04:25:49.271Z,96418.00
2023-01-09T04:28:15.734Z,96420.66
2023-01-09T04:30:42.273Z,96426.09
2023-01-09T04:33:08.709Z,96431.78
2023-01-09T04:35:35.179Z,96430.00
2023-01-09T04:38:04.238Z,96431.44
2023-01-09T04:40:30.726Z,96429.50
2023-01-09T04:42:57.189Z,96430.13
2023-01-09T04:45:23.714Z,96431.31
2023-01-09T04:47:52.592Z,96434.66
2023-01-09T04:50:19.159Z,96434.84
2023-01-09T04:52:45.597Z,96430.38
2023-01-09T04:55:12.112Z,96427.66
2023-01-09T04:57:41.195Z,96435.75
2023-01-09T05:00:12.353Z,96433.59
2023-01-09T05:02:39.527Z,96446.06
2023-01-09T05:05:10.413Z,96441.50
2023-01-09T05:07:37.763Z,96437.38
2023-01-09T05:10:05.664Z,96444.47
2023-01-09T05:12:36.888Z,96450.75
2023-01-09T05:15:04.856Z,96457.69
2023-01-09T05:17:31.288Z,96469.56
2023-01-09T05:19:57.770Z,96468.84
2023-01-09T05:22:24.251Z,96475.97
2023-01-09T05:24:52.996Z,96478.78
2023-01-09T05:27:19.464Z,96483.41
2023-01-09T05:29:45.923Z,96481.31
2023-01-09T05:32:12.429Z,96492.16
2023-01-09T05:34:38.878Z,96493.47
2023-01-09T05:37:05.348Z,96501.72
2023-01-09T05:39:32.011Z,96509.66
2023-01-09T05:41:58.489Z,96498.16
2023-01-09T05:44:24.930Z,96507.56
2023-01-09T05:46:51.353Z,96508.81
2023-01-09T05:49:17.815Z,96519.97
2023-01-09T05:51:46.237Z,96527.56
2023-01-09T05:54:12.700Z,96526.59
2023-01-09T05:56:39.137Z,96528.28
2023-01-09T05:59:05.727Z,96536.75
2023-01-09T06:01:32.292Z,96533.31
2023-01-09T06:03:58.820Z,96543.50
2023-01-09T06:06:36.562Z,96539.66
2023-01-09T06:09:03.660Z,96557.13
2023-01-09T06:11:30.131Z,96563.06
2023-01-09T06:13:56.609Z,96553.69
2023-01-09T06:16:23.153Z,96549.66
2023-01-09T06:18:50.486Z,96544.41
2023-01-09T06:21:16.981Z,96546.13
2023-01-09T06:23:43.462Z,96546.66
2023-01-09T06:26:09.953Z,96555.09
2023-01-09T06:28:36.500Z,96551.69
2023-01-09T06:31:03.217Z,96557.88
2023-01-09T06:33:30.101Z,96573.19
2023-01-09T06:35:56.579Z,96567.97
2023-01-09T06:38:23.271Z,96582.91
2023-01-09T06:40:50.846Z,96595.81
2023-01-09T06:43:17.282Z,96594.88
2023-01-09T06:45:44.162Z,96614.28
2023-01-09T06:48:11.116Z,96613.44
2023-01-09T06:50:37.678Z,96610.56
2023-01-09T06:53:04.196Z,96624.59
2023-01-09T06:55:30.681Z,96633.25
2023-01-09T06:57:57.153Z,96641.94
2023-01-09T07:00:23.691Z,96655.25
2023-01-09T07:02:50.144Z,96644.94
2023-01-09T07:05:16.841Z,96655.63
2023-01-09T07:07:43.328Z,96657.72
2023-01-09T07:10:11.084Z,96664.63
2023-01-09T07:12:37.547Z,96671.50
2023-01-09T07:15:04.471Z,96678.25
2023-01-09T07:17:32.696Z,96681.28
2023-01-09T07:20:00.001Z,96687.28
2023-01-09T07:22:26.657Z,96694.81
2023-01-09T07:24:53.149Z,96698.78
2023-01-09T07:27:19.624Z,96704.00
2023-01-09T07:29:46.110Z,96710.09
2023-01-09T07:32:12.547Z,96705.69
2023-01-09T07:34:40.424Z,96707.63
2023-01-09T07:37:06.936Z,96711.34
2023-01-09T07:39:33.390Z,96714.31
2023-01-09T07:41:59.829Z,96712.00
2023-01-09T07:44:26.325Z,96712.84
2023-01-09T07:46:53.019Z,96718.22
2023-01-09T07:49:21.868Z,96719.78
2023-01-09T07:51:48.376Z,96724.22
2023-01-09T07:54:14.980Z,96732.81
2023-01-09T07:56:41.445Z,96736.56
2023-01-09T07:59:08.146Z,96730.69
2023-01-09T08:01:34.954Z,96735.94
2023-01-09T08:04:01.443Z,96740.16
2023-01-09T08:06:27.992Z,96744.66
2023-01-09T08:08:54.436Z,96757.81
2023-01-09T08:11:20.936Z,96757.50
2023-01-09T08:13:47.428Z,96757.50
2023-01-09T08:16:14.005Z,96743.31
2023-01-09T08:18:40.511Z,96755.47
2023-01-09T08:21:09.607Z,96758.97
2023-01-09T08:23:36.092Z,96770.28
2023-01-09T08:26:03.227Z,96775.44
2023-01-09T08:28:29.738Z,96772.63
2023-01-09T08:30:56.261Z,96783.78
2023-01-09T08:33:23.050Z,96787.88
2023-01-09T08:35:53.246Z,96790.56
2023-01-09T08:38:19.838Z,96797.63
2023-01-09T08:40:47.515Z,96799.09
2023-01-09T08:43:32.696Z,96804.53
2023-01-09T08:46:17.776Z,96809.44
2023-01-09T08:48:46.564Z,96816.47
2023-01-09T08:51:13.201Z,96804.97
2023-01-09T08:53:39.706Z,96799.88
2023-01-09T08:56:06.474Z,96814.66
2023-01-09T08:58:33.027Z,96816.41
2023-01-09T09:00:59.557Z,96818.94
2023-01-09T09:03:26.024Z,96824.25
2023-01-09T09:05:54.974Z,96829.38
2023-01-09T09:08:21.711Z,96835.53
2023-01-09T09:10:48.153Z,96841.66
2023-01-09T09:13:14.656Z,96851.13
2023-01-09T09:15:41.203Z,96849.25
2023-01-09T09:18:07.759Z,96849.25
2023-01-09T09:20:41.100Z,96855.97
2023-01-09T09:23:08.417Z,96867.78
2023-01-09T09:25:35.488Z,96860.81
2023-01-09T09:28:02.164Z,96853.69
2023-01-09T09:30:28.832Z,96841.53
2023-01-09T09:33:00.207Z,96849.50
2023-01-09T09:35:28.490Z,96846.28
2023-01-09T09:37:56.878Z,96843.41
2023-01-09T09:40:39.779Z,96839.50
2023-01-09T09:43:28.137Z,96849.38
2023-01-09T09:46:09.641Z,96837.25
2023-01-09T09:48:54.726Z,96855.41
2023-01-09T09:51:34.546Z,96860.06
2023-01-09T09:54:17.500Z,96868.91
2023-01-09T09:56:51.461Z,96859.84
2023-01-09T09:59:21.310Z,96864.72
2023-01-09T10:02:02.465Z,96865.63
2023-01-09T10:04:33.502Z,96862.91
2023-01-09T10:07:14.122Z,96869.59
2023-01-09T10:09:54.358Z,96867.78
2023-01-09T10:12:43.746Z,96869.72
2023-01-09T10:15:22.841Z,96881.88
2023-01-09T10:18:18.018Z,96874.94
2023-01-09T10:20:53.067Z,96880.97
2023-01-09T10:23:34.933Z,96889.50
2023-01-09T10:26:37.630Z,96888.69
2023-01-09T10:29:07.090Z,96891.19
2023-01-09T10:32:02.821Z,96875.59
2023-01-09T10:34:41.482Z,96894.88
2023-01-09T10:37:16.212Z,96905.44
2023-01-09T10:39:57.865Z,96903.69
2023-01-09T10:42:47.405Z,96906.09
2023-01-09T10:45:59.278Z,96905.06
2023-01-09T10:48:31.843Z,96911.13
2023-01-09T10:50:59.473Z,96898.81
2023-01-09T10:53:35.309Z,96893.63
2023-01-09T10:56:14.740Z,96902.16
2023-01-09T10:58:41.200Z,96894.81
2023-01-09T11:01:09.547Z,96905.34
2023-01-09T11:03:41.821Z,96901.19
2023-01-09T11:06:43.382Z,96892.91
2023-01-09T11:09:10.142Z,96898.56
2023-01-09T11:11:40.825Z,96890.03
2023-01-09T11:14:17.082Z,96887.78
2023-01-09T11:17:03.980Z,96885.16
2023-01-09T11:19:33.341Z,96883.22
2023-01-09T11:22:17.544Z,96870.66
2023-01-09T11:24:44.886Z,96879.47
2023-01-09T11:27:14.479Z,96870.94
2023-01-09T11:29:41.697Z,96869.59
2023-01-09T11:32:22.465Z,96881.66
2023-01-09T11:34:53.105Z,96873.00
2023-01-09T11:37:27.869Z,96874.81
2023-01-09T11:39:55.874Z,96875.63
2023-01-09T11:42:44.816Z,96869.16
2023-01-09T11:45:30.711Z,96870.50
2023-01-09T11:47:58.612Z,96877.91
2023-01-09T11:50:30.825Z,96868.78
2023-01-09T11:53:18.376Z,96878.34
2023-01-09T11:55:47.166Z,96878.75
2023-01-09T11:58:16.714Z,96871.06
2023-01-09T12:01:14.360Z,96869.38
2023-01-09T12:03:46.919Z,96874.03
2023-01-09T12:06:19.721Z,96871.34
2023-01-09T12:08:58.193Z,96883.56
2023-01-09T12:11:32.141Z,96884.94
2023-01-09T12:14:01.253Z,96880.50
2023-01-09T12:16:39.169Z,96891.78
2023-01-09T12:19:08.705Z,96884.72
2023-01-09T12:21:41.904Z,96882.94
2023-01-09T12:24:53.373Z,96898.47
2023-01-09T12:27:56.992Z,96901.75
2023-01-09T12:30:33.958Z,96893.13
2023-01-09T12:33:22.369Z,96900.75
2023-01-09T12:36:06.842Z,96901.09
2023-01-09T12:38:54.123Z,96904.66
2023-01-09T12:41:35.430Z,96895.88
2023-01-09T12:44:35.638Z,96897.34
2023-01-09T12:47:34.406Z,96897.34
2023-01-09T12:50:00.905Z,96906.88
2023-01-09T12:52:39.371Z,96903.59
2023-01-09T12:55:18.715Z,96903.00
2023-01-09T12:57:55.716Z,96911.41
2023-01-09T13:00:27.344Z,96907.22
2023-01-09T13:03:13.300Z,96909.03
2023-01-09T13:05:47.157Z,96895.31
2023-01-09T13:08:32.585Z,96903.88
2023-01-09T13:11:22.420Z,96906.97
2023-01-09T13:13:55.847Z,96901.25
2023-01-09T13:16:47.520Z,96902.56
2023-01-09T13:19:24.875Z,96904.00
2023-01-09T13:21:52.910Z,96902.09
2023-01-09T13:24:51.566Z,96909.88
2023-01-09T13:27:22.877Z,96910.41
2023-01-09T13:29:55.884Z,96914.59
2023-01-09T13:32:26.279Z,96904.72
2023-01-09T13:34:55.143Z,96909.59
2023-01-09T13:37:27.815Z,96913.03
2023-01-09T13:39:57.744Z,96904.50
2023-01-09T13:42:51.364Z,96910.44
2023-01-09T13:45:17.769Z,96919.63
2023-01-09T13:47:45.022Z,96930.16
2023-01-09T13:50:11.424Z,96935.75
2023-01-09T13:52:43.225Z,96928.19
2023-01-09T13:55:15.034Z,96928.59
2023-01-09T13:58:05.794Z,96936.22
2023-01-09T14:00:35.160Z,96939.78
2023-01-09T14:03:22.101Z,96951.91
2023-01-09T14:05:48.508Z,96949.50
2023-01-09T14:08:23.921Z,96947.00
2023-01-09T14:10:57.887Z,96948.22
2023-01-09T14:13:28.542Z,96952.81
2023-01-09T14:16:23.744Z,96964.00
2023-01-09T14:19:16.221Z,96967.25
2023-01-09T14:21:49.459Z,96974.50
2023-01-09T14:24:28.882Z,96976.91
2023-01-09T14:27:01.011Z,96973.53
2023-01-09T14:29:43.671Z,96979.78
2023-01-09T14:32:22.353Z,96979.22
2023-01-09T14:35:04.457Z,96984.25
2023-01-09T14:37:35.398Z,96989.41
2023-01-09T14:40:06.986Z,96992.94
2023-01-09T14:42:35.170Z,96994.88
2023-01-09T14:45:07.457Z,96996.38
2023-01-09T14:47:41.838Z,97010.22
2023-01-09T14:50:45.112Z,97005.78
2023-01-09T14:53:34.460Z,97006.69
2023-01-09T14:56:06.018Z,96999.97
2023-01-09T14:58:40.326Z,96997.31
2023-01-09T15:01:18.855Z,97002.00
2023-01-09T15:03:51.588Z,97007.09
2023-01-09T15:06:20.868Z,97016.69
2023-01-09T15:09:13.319Z,97026.78
2023-01-09T15:11:40.307Z,97028.56
2023-01-09T15:14:09.046Z,97018.28
2023-01-09T15:16:35.641Z,97022.09
2023-01-09T15:19:07.556Z,97030.81
2023-01-09T15:21:36.571Z,97032.91
2023-01-09T15:24:13.164Z,97031.38
2023-01-09T15:26:40.232Z,97040.31
2023-01-09T15:29:17.824Z,97035.31
2023-01-09T15:31:47.361Z,97042.50
2023-01-09T15:34:35.295Z,97051.31
2023-01-09T15:37:03.113Z,97054.53
2023-01-09T15:39:36.026Z,97060.13
2023-01-09T15:42:22.040Z,97058.22
2023-01-09T15:44:53.714Z,97063.91
2023-01-09T15:47:31.482Z,97057.94
2023-01-09T15:50:06.295Z,97071.91
2023-01-09T15:52:33.135Z,97070.19
2023-01-09T15:54:59.613Z,97080.06
2023-01-09T15:57:34.645Z,97085.38
2023-01-09T16:00:31.223Z,97096.75
2023-01-09T16:03:10.128Z,97102.97
2023-01-09T16:05:43.855Z,97102.81
2023-01-09T16:08:26.535Z,97108.50
2023-01-09T16:10:58.368Z,97106.59
2023-01-09T16:13:30.044Z,97110.41
2023-01-09T16:15:58.784Z,97096.31
2023-01-09T16:18:31.068Z,97100.50
2023-01-09T16:21:21.796Z,97109.75
2023-01-09T16:24:03.090Z,97104.44
2023-01-09T16:26:31.212Z,97112.31
2023-01-09T16:29:46.725Z,97109.13
2023-01-09T16:32:25.728Z,97101.41
2023-01-09T16:34:54.352Z,97108.34
2023-01-09T16:37:22.891Z,97115.16
2023-01-09T16:40:22.480Z,97108.25
2023-01-09T16:43:00.813Z,97108.34
2023-01-09T16:45:30.220Z,97108.75
2023-01-09T16:47:58.070Z,97107.03
2023-01-09T16:50:25.710Z,97101.66
2023-01-09T16:52:55.439Z,97110.28
2023-01-09T16:55:21.913Z,97114.09
2023-01-09T16:57:48.497Z,97128.50
2023-01-09T17:00:18.070Z,97131.88
2023-01-09T17:02:44.846Z,97127.13
2023-01-09T17:05:11.531Z,97131.69
2023-01-09T17:07:38.275Z,97133.72
2023-01-09T17:10:17.799Z,97138.06
2023-01-09T17:12:44.280Z,97135.44
2023-01-09T17:15:10.812Z,97141.50
2023-01-09T17:17:37.323Z,97137.94
2023-01-09T17:20:09.589Z,97142.50
2023-01-09T17:22:38.377Z,97149.72
2023-01-09T17:25:23.906Z,97151.16
2023-01-09T17:28:09.187Z,97155.50
2023-01-09T17:30:35.635Z,97155.66
2023-01-09T17:33:02.088Z,97164.97
2023-01-09T17:35:28.555Z,97162.22
2023-01-09T17:37:58.306Z,97165.50
2023-01-09T17:40:24.911Z,97162.94
2023-01-09T17:42:51.353Z,97164.66
2023-01-09T17:45:17.939Z,97172.34
2023-01-09T17:47:44.423Z,97179.03
2023-01-09T17:50:21.073Z,97181.66
2023-01-09T17:52:48.903Z,97180.91
2023-01-09T17:55:15.410Z,97194.69
2023-01-09T17:57:43.437Z,97191.28
2023-01-09T18:00:30.216Z,97199.00
2023-01-09T18:02:57.510Z,97211.38
2023-01-09T18:05:27.637Z,97215.50
2023-01-09T18:07:54.162Z,97239.06
2023-01-09T18:10:24.533Z,97251.22
2023-01-09T18:12:52.534Z,97269.63
2023-01-09T18:15:19.037Z,97278.38
2023-01-09T18:17:45.685Z,97283.63
2023-01-09T18:20:15.057Z,97292.47
2023-01-09T18:22:43.598Z,97300.69
2023-01-09T18:25:10.191Z,97305.09
2023-01-09T18:27:37.416Z,97313.88
2023-01-09T18:30:05.697Z,97314.88
2023-01-09T18:32:32.598Z,97312.25
2023-01-09T18:34:59.101Z,97318.41
2023-01-09T18:37:26.795Z,97313.25
2023-01-09T18:39:53.249Z,97313.69
2023-01-09T18:42:19.718Z,97313.50
2023-01-09T18:44:46.227Z,97322.31
2023-01-09T18:47:13.030Z,97324.13
2023-01-09T18:49:42.182Z,97326.63
2023-01-09T18:52:10.767Z,97320.81
2023-01-09T18:54:38.459Z,97312.81
2023-01-09T18:57:05.151Z,97318.00
2023-01-09T18:59:31.602Z,97324.13
2023-01-09T19:01:58.417Z,97330.75
2023-01-09T19:04:26.972Z,97331.78
2023-01-09T19:06:56.066Z,97342.09
2023-01-09T19:09:23.650Z,97332.63
2023-01-09T19:11:50.122Z,97330.13
2023-01-09T19:14:16.647Z,97336.22
2023-01-09T19:16:43.187Z,97328.34
2023-01-09T19:19:10.231Z,97329.44
2023-01-09T19:21:36.808Z,97327.66
2023-01-09T19:24:03.487Z,97337.31
2023-01-09T19:26:31.074Z,97339.91
2023-01-09T19:28:57.968Z,97349.63
2023-01-09T19:31:25.761Z,97347.94
2023-01-09T19:33:52.910Z,97355.84
2023-01-09T19:36:20.072Z,97355.09
2023-01-09T19:38:46.779Z,97355.13
2023-01-09T19:41:19.457Z,97366.50
2023-01-09T19:43:47.648Z,97366.41
2023-01-09T19:46:18.449Z,97368.28
2023-01-09T19:48:45.343Z,97368.41
2023-01-09T19:51:13.250Z,97385.78
2023-01-09T19:53:40.215Z,97382.53
2023-01-09T19:56:18.382Z,97398.03
2023-01-09T19:58:56.066Z,97398.03
2023-01-09T20:01:32.707Z,97395.59
2023-01-09T20:04:04.070Z,97402.41
2023-01-09T20:06:31.289Z,97418.78
2023-01-09T20:08:59.873Z,97426.63
2023-01-09T20:11:29.587Z,97422.34
2023-01-09T20:13:56.683Z,97423.22
2023-01-09T20:16:28.889Z,97432.84
2023-01-09T20:19:00.960Z,97438.16
2023-01-09T20:21:28.927Z,97441.63
2023-01-09T20:23:59.023Z,97443.25
2023-01-09T20:26:26.537Z,97443.31
2023-01-09T20:28:53.477Z,97450.81
2023-01-09T20:31:22.015Z,97444.72
2023-01-09T20:33:49.447Z,97458.63
2023-01-09T20:36:15.928Z,97462.03
2023-01-09T20:38:45.317Z,97464.81
2023-01-09T20:41:22.737Z,97470.72
2023-01-09T20:43:59.658Z,97477.72
2023-01-09T20:46:28.909Z,97476.88
2023-01-09T20:48:56.890Z,97482.84
2023-01-09T20:51:23.801Z,97485.28
2023-01-09T20:53:58.293Z,97488.78
2023-01-09T20:56:29.735Z,97493.16
2023-01-09T20:58:58.021Z,97489.69
2023-01-09T21:01:25.321Z,97503.72
2023-01-09T21:03:53.709Z,97505.47
2023-01-09T21:06:31.175Z,97507.13
2023-01-09T21:08:57.921Z,97507.97
2023-01-09T21:11:24.464Z,97518.28
2023-01-09T21:13:51.787Z,97520.97
2023-01-09T21:16:21.610Z,97522.81
2023-01-09T21:18:48.627Z,97524.38
2023-01-09T21:21:17.937Z,97527.72
2023-01-09T21:23:58.410Z,97532.94
2023-01-09T21:26:36.332Z,97532.03
2023-01-09T21:29:08.283Z,97533.72
2023-01-09T21:31:35.283Z,97541.56
2023-01-09T21:34:07.367Z,97536.19
2023-01-09T21:36:35.410Z,97549.19
2023-01-09T21:39:02.414Z,97557.72
2023-01-09T21:41:49.150Z,97563.88
2023-01-09T21:44:33.931Z,97567.09
2023-01-09T21:47:04.245Z,97565.25
2023-01-09T21:49:36.143Z,97581.84
2023-01-09T21:52:04.569Z,97584.59
2023-01-09T21:54:31.467Z,97587.16
2023-01-09T21:56:58.131Z,97597.59
2023-01-09T21:59:27.374Z,97603.63
2023-01-09T22:01:56.733Z,97603.53
2023-01-09T22:04:26.436Z,97612.19
2023-01-09T22:06:52.874Z,97610.50
2023-01-09T22:09:19.471Z,97608.84
2023-01-09T22:11:46.581Z,97621.03
2023-01-09T22:14:15.742Z,97627.84
2023-01-09T22:16:44.125Z,97631.31
2023-01-09T22:19:19.519Z,97636.38
2023-01-09T22:21:46.881Z,97643.34
2023-01-09T22:24:15.055Z,97641.59
2023-01-09T22:26:41.553Z,97652.00
2023-01-09T22:29:08.012Z,97648.44
2023-01-09T22:31:37.398Z,97659.78
2023-01-09T22:34:03.815Z,97661.47
2023-01-09T22:36:31.066Z,97665.03
2023-01-09T22:38:59.074Z,97671.75
2023-01-09T22:41:27.431Z,97665.75
2023-01-09T22:43:53.882Z,97677.88
2023-01-09T22:46:20.667Z,97681.28
2023-01-09T22:48:47.207Z,97687.56
2023-01-09T22:51:17.648Z,97697.00
2023-01-09T22:53:44.905Z,97703.03
2023-01-09T22:56:17.491Z,97708.19
2023-01-09T22:58:44.672Z,97709.00
2023-01-09T23:01:12.414Z,97724.63
2023-01-09T23:03:39.890Z,97728.91
2023-01-09T23:06:11.771Z,97726.31
2023-01-09T23:08:42.088Z,97727.97
2023-01-09T23:11:13.120Z,97726.34
2023-01-09T23:13:40.614Z,97721.16
2023-01-09T23:16:07.556Z,97722.09
2023-01-09T23:18:35.754Z,97730.78
2023-01-09T23:21:04.898Z,97741.38
2023-01-09T23:23:32.654Z,97744.91
2023-01-09T23:26:02.454Z,97739.72
2023-01-09T23:28:30.601Z,97750.94
2023-01-09T23:31:01.260Z,97757.03
2023-01-09T23:33:27.871Z,97757.72
2023-01-09T23:35:54.383Z,97754.28
2023-01-09T23:38:21.000Z,97764.63
2023-01-09T23:40:47.607Z,97774.22
2023-01-09T23:43:16.761Z,97773.34
2023-01-09T23:45:48.946Z,97775.81
2023-01-09T23:48:16.919Z,97785.41
2023-01-09T23:50:47.419Z,97786.31
2023-01-09T23:53:14.152Z,97788.91
2023-01-09T23:55:43.041Z,97784.66
2023-01-09T23:58:11.652Z,97794.25
